createdAt,value
2022-12-06T00:00:34.676Z,3.64
2022-12-06T00:03:05.349Z,3.49
2022-12-06T00:05:41.788Z,3.66
2022-12-06T00:08:13.908Z,3.62
2022-12-06T00:10:45.341Z,3.61
2022-12-06T00:13:16.051Z,3.56
2022-12-06T00:15:49.571Z,3.60
2022-12-06T00:18:20.984Z,3.64
2022-12-06T00:20:51.428Z,3.45
2022-12-06T00:23:23.534Z,3.56
2022-12-06T00:25:54.833Z,3.50
2022-12-06T00:28:26.978Z,3.44
2022-12-06T00:31:06.415Z,3.32
2022-12-06T00:33:37.975Z,3.52
2022-12-06T00:36:12.822Z,3.43
2022-12-06T00:38:45.207Z,3.42
2022-12-06T00:41:18.240Z,3.28
2022-12-06T00:43:51.766Z,3.34
2022-12-06T00:46:25.865Z,3.40
2022-12-06T00:48:59.557Z,3.43
2022-12-06T00:51:31.805Z,3.46
2022-12-06T00:54:02.884Z,3.38
2022-12-06T00:56:35.494Z,3.24
2022-12-06T00:59:08.259Z,3.22
2022-12-06T01:01:40.572Z,3.16
2022-12-06T01:04:12.712Z,3.10
2022-12-06T01:06:43.812Z,3.20
2022-12-06T01:09:14.598Z,3.20
2022-12-06T01:11:45.167Z,3.06
2022-12-06T01:14:15.663Z,3.06
2022-12-06T01:16:46.303Z,3.15
2022-12-06T01:19:17.041Z,3.09
2022-12-06T01:21:49.064Z,3.04
2022-12-06T01:24:19.591Z,3.14
2022-12-06T01:26:50.054Z,2.91
2022-12-06T01:29:23.896Z,2.90
2022-12-06T01:31:54.381Z,2.89
2022-12-06T01:34:25.307Z,3.06
2022-12-06T01:36:55.845Z,3.04
2022-12-06T01:39:26.374Z,3.20
2022-12-06T01:41:56.887Z,3.15
2022-12-06T01:44:42.882Z,3.20
2022-12-06T01:47:18.875Z,3.04
2022-12-06T01:49:52.380Z,3.05
2022-12-06T01:52:25.952Z,2.96
2022-12-06T01:54:57.276Z,3.01
2022-12-06T01:57:30.786Z,3.06
2022-12-06T02:00:02.905Z,2.91
2022-12-06T02:02:35.063Z,3.08
2022-12-06T02:05:06.234Z,3.04
2022-12-06T02:07:37.565Z,3.09
2022-12-06T02:10:09.737Z,3.01
2022-12-06T02:12:44.072Z,2.98
2022-12-06T02:15:14.854Z,2.92
2022-12-06T02:17:54.397Z,3.02
2022-12-06T02:20:28.701Z,2.98
2022-12-06T02:23:08.029Z,2.90
2022-12-06T02:25:45.778Z,3.07
2022-12-06T02:28:52.358Z,2.99
2022-12-06T02:31:42.486Z,2.89
2022-12-06T02:34:25.143Z,2.98
2022-12-06T02:37:02.172Z,3.00
2022-12-06T02:39:50.997Z,2.89
2022-12-06T02:42:31.111Z,2.92
2022-12-06T02:45:06.550Z,2.90
2022-12-06T02:47:40.429Z,2.92
2022-12-06T02:50:13.926Z,2.94
2022-12-06T02:52:47.478Z,3.04
2022-12-06T02:55:19.737Z,2.84
2022-12-06T02:57:57.497Z,2.90
2022-12-06T03:00:46.175Z,3.00
2022-12-06T03:03:43.096Z,3.06
2022-12-06T03:06:25.602Z,2.80
2022-12-06T03:09:08.360Z,3.06
2022-12-06T03:12:04.321Z,3.04
2022-12-06T03:14:40.525Z,3.09
2022-12-06T03:17:16.882Z,3.00
2022-12-06T03:19:50.446Z,3.18
2022-12-06T03:22:23.987Z,3.06
2022-12-06T03:24:57.771Z,2.88
2022-12-06T03:27:29.332Z,2.92
2022-12-06T03:30:03.949Z,2.88
2022-12-06T03:32:39.064Z,2.76
2022-12-06T03:35:14.101Z,2.88
2022-12-06T03:37:47.952Z,2.96
2022-12-06T03:40:27.441Z,2.84
2022-12-06T03:42:58.868Z,2.67
2022-12-06T03:45:39.299Z,2.74
2022-12-06T03:48:15.630Z,2.80
2022-12-06T03:50:58.357Z,2.66
2022-12-06T03:53:28.476Z,2.80
2022-12-06T03:56:00.628Z,2.63
2022-12-06T03:58:32.773Z,2.62
2022-12-06T04:01:04.879Z,2.71
2022-12-06T04:03:35.991Z,2.72
2022-12-06T04:06:08.137Z,2.64
2022-12-06T04:08:39.315Z,2.48
2022-12-06T04:11:09.752Z,2.62
2022-12-06T04:13:41.017Z,2.58
2022-12-06T04:16:29.765Z,2.60
2022-12-06T04:19:00.272Z,2.58
2022-12-06T04:21:35.375Z,2.48
2022-12-06T04:24:06.932Z,2.45
2022-12-06T04:26:37.353Z,2.46
2022-12-06T04:29:26.216Z,2.58
2022-12-06T04:32:14.731Z,2.74
2022-12-06T04:35:03.166Z,2.70
2022-12-06T04:37:51.654Z,2.68
2022-12-06T04:40:22.736Z,2.64
2022-12-06T04:43:11.468Z,2.61
2022-12-06T04:45:42.651Z,2.50
2022-12-06T04:48:14.946Z,2.58
2022-12-06T04:50:50.384Z,2.57
2022-12-06T04:53:20.817Z,2.59
2022-12-06T04:55:55.723Z,2.86
2022-12-06T04:58:26.294Z,2.76
2022-12-06T05:00:58.533Z,2.66
2022-12-06T05:03:30.639Z,2.66
2022-12-06T05:06:02.824Z,2.68
2022-12-06T05:08:33.426Z,2.76
2022-12-06T05:11:04.168Z,2.74
2022-12-06T05:13:36.705Z,2.52
2022-12-06T05:16:08.521Z,2.67
2022-12-06T05:18:40.529Z,2.59
2022-12-06T05:21:16.996Z,2.64
2022-12-06T05:23:48.253Z,2.38
2022-12-06T05:26:20.902Z,2.43
2022-12-06T05:28:52.424Z,2.58
2022-12-06T05:31:23.415Z,2.48
2022-12-06T05:34:03.637Z,2.45
2022-12-06T05:36:34.262Z,2.46
2022-12-06T05:39:04.942Z,2.56
2022-12-06T05:41:35.573Z,2.45
2022-12-06T05:44:06.373Z,2.51
2022-12-06T05:46:37.342Z,2.52
2022-12-06T05:49:07.974Z,2.44
2022-12-06T05:51:40.112Z,2.63
2022-12-06T05:54:10.604Z,2.48
2022-12-06T05:56:41.215Z,2.50
2022-12-06T05:59:12.514Z,2.36
2022-12-06T06:01:43.312Z,2.36
2022-12-06T06:04:13.743Z,2.34
2022-12-06T06:06:44.311Z,2.55
2022-12-06T06:09:15.071Z,2.36
2022-12-06T06:11:45.753Z,2.58
2022-12-06T06:14:17.538Z,2.50
2022-12-06T06:16:49.314Z,2.49
2022-12-06T06:19:21.965Z,2.46
2022-12-06T06:21:52.790Z,2.41
2022-12-06T06:24:24.364Z,2.46
2022-12-06T06:26:54.903Z,2.54
2022-12-06T06:29:25.421Z,2.60
2022-12-06T06:31:56.042Z,2.65
2022-12-06T06:34:27.465Z,2.76
2022-12-06T06:37:15.577Z,2.65
2022-12-06T06:39:45.987Z,2.73
2022-12-06T06:42:18.053Z,2.80
2022-12-06T06:44:48.596Z,2.72
2022-12-06T06:47:20.354Z,2.68
2022-12-06T06:49:51.057Z,2.66
2022-12-06T06:52:21.700Z,2.73
2022-12-06T06:54:53.109Z,2.97
2022-12-06T06:57:23.645Z,2.78
2022-12-06T06:59:54.033Z,2.98
2022-12-06T07:02:25.520Z,2.80
2022-12-06T07:04:56.127Z,2.70
2022-12-06T07:07:28.735Z,2.77
2022-12-06T07:09:59.373Z,2.76
2022-12-06T07:12:30.052Z,2.80
2022-12-06T07:15:06.432Z,2.83
2022-12-06T07:17:37.155Z,2.72
2022-12-06T07:20:08.877Z,2.56
2022-12-06T07:22:39.530Z,2.62
2022-12-06T07:25:10.998Z,2.70
2022-12-06T07:27:42.158Z,2.56
2022-12-06T07:30:17.183Z,2.68
2022-12-06T07:32:47.066Z,2.74
2022-12-06T07:35:17.757Z,2.73
2022-12-06T07:37:48.526Z,2.76
2022-12-06T07:40:30.699Z,2.88
2022-12-06T07:43:10.770Z,2.84
2022-12-06T07:45:41.476Z,2.90
2022-12-06T07:48:11.977Z,2.76
2022-12-06T07:50:42.624Z,2.80
2022-12-06T07:53:14.849Z,2.80
2022-12-06T07:55:45.377Z,2.64
2022-12-06T07:58:18.986Z,2.84
2022-12-06T08:00:50.150Z,2.74
2022-12-06T08:03:21.359Z,2.89
2022-12-06T08:05:56.758Z,2.74
2022-12-06T08:08:29.024Z,2.78
2022-12-06T08:11:04.630Z,2.73
2022-12-06T08:13:38.746Z,2.76
2022-12-06T08:16:13.725Z,2.67
2022-12-06T08:18:45.137Z,2.70
2022-12-06T08:21:16.634Z,2.60
2022-12-06T08:23:49.711Z,2.68
2022-12-06T08:26:21.916Z,2.76
2022-12-06T08:28:53.079Z,2.94
2022-12-06T08:31:25.205Z,3.66
2022-12-06T08:33:58.972Z,3.56
2022-12-06T08:36:30.117Z,3.12
2022-12-06T08:39:02.065Z,3.14
2022-12-06T08:41:50.540Z,3.14
2022-12-06T08:44:23.579Z,3.03
2022-12-06T08:46:54.523Z,2.98
2022-12-06T08:49:27.576Z,2.94
2022-12-06T08:52:00.504Z,3.12
2022-12-06T08:54:31.256Z,3.00
2022-12-06T08:57:02.799Z,2.86
2022-12-06T08:59:33.336Z,2.94
2022-12-06T09:02:05.389Z,2.97
2022-12-06T09:04:36.136Z,2.90
2022-12-06T09:07:11.458Z,2.86
2022-12-06T09:09:39.842Z,2.92
2022-12-06T09:12:10.423Z,2.93
2022-12-06T09:14:41.827Z,2.92
2022-12-06T09:17:12.850Z,2.86
2022-12-06T09:19:43.384Z,2.78
2022-12-06T09:22:16.882Z,2.85
2022-12-06T09:24:47.296Z,2.97
2022-12-06T09:27:20.839Z,2.96
2022-12-06T09:29:51.534Z,3.18
2022-12-06T09:32:23.635Z,3.04
2022-12-06T09:34:55.573Z,3.14
2022-12-06T09:37:28.694Z,3.10
2022-12-06T09:40:03.819Z,3.11
2022-12-06T09:42:49.621Z,3.19
2022-12-06T09:45:31.708Z,2.90
2022-12-06T09:48:23.445Z,2.94
2022-12-06T09:50:59.916Z,2.85
2022-12-06T09:53:40.510Z,3.08
2022-12-06T09:56:23.702Z,2.99
2022-12-06T09:59:32.460Z,3.16
2022-12-06T10:02:36.612Z,3.00
2022-12-06T10:05:50.527Z,3.20
2022-12-06T10:08:45.333Z,2.95
2022-12-06T10:11:57.889Z,2.98
2022-12-06T10:14:39.865Z,2.78
2022-12-06T10:17:40.740Z,2.94
2022-12-06T10:20:36.255Z,3.10
2022-12-06T10:23:22.493Z,2.86
2022-12-06T10:26:14.726Z,3.08
2022-12-06T10:28:55.088Z,2.90
2022-12-06T10:31:37.570Z,2.82
2022-12-06T10:34:15.668Z,2.98
2022-12-06T10:36:53.015Z,2.99
2022-12-06T10:39:26.605Z,3.02
2022-12-06T10:42:08.943Z,2.89
2022-12-06T10:44:49.948Z,2.98
2022-12-06T10:47:30.742Z,2.86
2022-12-06T10:50:09.923Z,3.00
2022-12-06T10:52:43.420Z,3.06
2022-12-06T10:55:19.978Z,3.06
2022-12-06T10:58:09.825Z,3.14
2022-12-06T11:01:01.116Z,3.02
2022-12-06T11:03:36.000Z,3.04
2022-12-06T11:06:19.374Z,3.08
2022-12-06T11:08:57.300Z,2.88
2022-12-06T11:11:37.751Z,2.95
2022-12-06T11:14:25.236Z,2.85
2022-12-06T11:17:01.530Z,2.88
2022-12-06T11:19:39.484Z,3.01
2022-12-06T11:22:37.287Z,3.06
2022-12-06T11:25:19.794Z,3.28
2022-12-06T11:28:02.374Z,3.22
2022-12-06T11:30:35.421Z,3.26
2022-12-06T11:33:07.992Z,3.30
2022-12-06T11:35:40.131Z,3.36
2022-12-06T11:38:12.423Z,3.26
2022-12-06T11:40:54.206Z,3.40
2022-12-06T11:43:26.682Z,3.57
2022-12-06T11:45:59.502Z,3.37
2022-12-06T11:48:33.610Z,3.40
2022-12-06T11:51:05.601Z,3.26
2022-12-06T11:53:43.979Z,3.33
2022-12-06T11:56:26.657Z,3.43
2022-12-06T11:59:05.694Z,3.48
2022-12-06T12:01:45.283Z,3.49
2022-12-06T12:04:38.169Z,3.22
2022-12-06T12:07:11.889Z,3.12
2022-12-06T12:10:03.711Z,3.07
2022-12-06T12:12:50.575Z,3.12
2022-12-06T12:15:24.526Z,3.12
2022-12-06T12:17:58.660Z,3.34
2022-12-06T12:20:40.857Z,3.10
2022-12-06T12:23:26.553Z,3.17
2022-12-06T12:26:05.830Z,3.20
2022-12-06T12:28:38.589Z,3.30
2022-12-06T12:31:21.423Z,3.54
2022-12-06T12:33:55.251Z,3.16
2022-12-06T12:36:30.252Z,3.18
2022-12-06T12:39:02.519Z,3.18
2022-12-06T12:41:43.245Z,3.18
2022-12-06T12:44:37.075Z,3.32
2022-12-06T12:47:05.141Z,3.14
2022-12-06T12:49:39.558Z,3.16
2022-12-06T12:52:35.340Z,3.27
2022-12-06T12:55:27.115Z,3.02
2022-12-06T12:58:02.249Z,3.08
2022-12-06T13:00:40.374Z,3.05
2022-12-06T13:03:42.802Z,2.96
2022-12-06T13:05:52.941Z,3.02
2022-12-06T13:08:27.939Z,2.87
2022-12-06T13:11:01.589Z,2.96
2022-12-06T13:13:38.057Z,3.00
2022-12-06T13:16:11.806Z,2.83
2022-12-06T13:18:54.647Z,2.80
2022-12-06T13:21:29.772Z,2.84
2022-12-06T13:24:12.345Z,2.88
2022-12-06T13:27:01.016Z,2.81
2022-12-06T13:29:43.826Z,2.88
2022-12-06T13:32:19.313Z,3.06
2022-12-06T13:34:56.148Z,3.02
2022-12-06T13:37:29.337Z,3.13
2022-12-06T13:40:05.749Z,3.00
2022-12-06T13:42:40.562Z,3.24
2022-12-06T13:45:15.622Z,3.22
2022-12-06T13:47:55.365Z,3.07
2022-12-06T13:50:30.468Z,3.10
2022-12-06T13:53:04.905Z,3.28
2022-12-06T13:55:42.255Z,3.04
2022-12-06T13:58:19.333Z,2.99
2022-12-06T14:00:51.500Z,2.91
2022-12-06T14:03:26.687Z,2.92
2022-12-06T14:06:12.020Z,2.99
2022-12-06T14:08:47.028Z,2.91
2022-12-06T14:11:21.280Z,2.86
2022-12-06T14:14:00.477Z,2.88
2022-12-06T14:16:37.854Z,2.92
2022-12-06T14:19:24.221Z,2.86
2022-12-06T14:21:58.614Z,2.92
2022-12-06T14:24:44.282Z,2.88
2022-12-06T14:27:21.550Z,2.96
2022-12-06T14:30:05.593Z,3.07
2022-12-06T14:32:42.495Z,2.93
2022-12-06T14:35:18.884Z,2.76
2022-12-06T14:38:01.925Z,2.86
2022-12-06T14:41:02.174Z,2.73
2022-12-06T14:43:37.018Z,2.77
2022-12-06T14:46:10.530Z,2.82
2022-12-06T14:49:00.005Z,2.80
2022-12-06T14:51:41.089Z,2.77
2022-12-06T14:54:43.413Z,2.82
2022-12-06T14:57:33.941Z,2.94
2022-12-06T15:00:20.914Z,2.80
2022-12-06T15:02:45.559Z,2.82
2022-12-06T15:05:37.235Z,2.80
2022-12-06T15:08:30.374Z,2.81
2022-12-06T15:11:03.791Z,2.74
2022-12-06T15:13:38.373Z,2.66
2022-12-06T15:16:11.943Z,2.62
2022-12-06T15:18:49.966Z,2.70
2022-12-06T15:21:21.046Z,2.54
2022-12-06T15:23:53.171Z,2.58
2022-12-06T15:26:25.845Z,2.67
2022-12-06T15:28:57.804Z,2.63
2022-12-06T15:31:33.082Z,2.67
2022-12-06T15:34:05.313Z,2.54
2022-12-06T15:36:37.179Z,2.61
2022-12-06T15:39:08.958Z,2.60
2022-12-06T15:41:42.278Z,2.56
2022-12-06T15:44:20.851Z,2.65
2022-12-06T15:46:52.453Z,2.62
2022-12-06T15:49:28.653Z,2.80
2022-12-06T15:52:01.551Z,2.72
2022-12-06T15:54:34.302Z,2.63
2022-12-06T15:57:04.780Z,2.76
2022-12-06T15:59:35.543Z,2.69
2022-12-06T16:02:12.499Z,2.64
2022-12-06T16:04:43.554Z,2.60
2022-12-06T16:07:16.647Z,2.68
2022-12-06T16:09:50.785Z,2.81
2022-12-06T16:12:22.847Z,2.66
2022-12-06T16:14:54.409Z,2.64
2022-12-06T16:17:28.476Z,2.61
2022-12-06T16:20:18.275Z,2.60
2022-12-06T16:23:06.497Z,2.55
2022-12-06T16:25:38.686Z,2.66
2022-12-06T16:28:11.142Z,2.74
2022-12-06T16:30:44.718Z,2.69
2022-12-06T16:33:24.586Z,2.75
2022-12-06T16:35:57.523Z,2.63
2022-12-06T16:38:30.302Z,2.68
2022-12-06T16:41:05.290Z,2.66
2022-12-06T16:43:37.905Z,2.66
2022-12-06T16:46:26.171Z,2.64
2022-12-06T16:49:29.337Z,2.69
2022-12-06T16:51:37.837Z,2.60
2022-12-06T16:54:08.713Z,2.56
2022-12-06T16:56:41.783Z,2.66
2022-12-06T16:59:19.077Z,2.56
2022-12-06T17:01:55.941Z,2.74
2022-12-06T17:04:55.055Z,2.60
2022-12-06T17:07:29.335Z,2.62
2022-12-06T17:10:00.716Z,2.60
2022-12-06T17:12:33.004Z,2.56
2022-12-06T17:15:04.653Z,2.56
2022-12-06T17:17:36.346Z,2.61
2022-12-06T17:20:09.688Z,2.66
2022-12-06T17:22:42.824Z,2.67
2022-12-06T17:25:17.270Z,2.70
2022-12-06T17:27:49.523Z,2.77
2022-12-06T17:30:21.749Z,2.77
2022-12-06T17:32:52.390Z,2.74
2022-12-06T17:35:25.712Z,2.70
2022-12-06T17:38:03.887Z,2.78
2022-12-06T17:40:34.737Z,2.77
2022-12-06T17:43:06.494Z,2.80
2022-12-06T17:45:38.094Z,2.68
2022-12-06T17:48:09.717Z,2.69
2022-12-06T17:50:42.694Z,2.74
2022-12-06T17:53:13.351Z,2.76
2022-12-06T17:55:43.802Z,2.77
2022-12-06T17:58:14.282Z,2.80
2022-12-06T18:00:46.376Z,2.82
2022-12-06T18:03:20.485Z,2.80
2022-12-06T18:05:54.872Z,2.81
2022-12-06T18:08:25.388Z,2.82
2022-12-06T18:11:03.151Z,2.91
2022-12-06T18:13:36.182Z,2.88
2022-12-06T18:16:24.936Z,2.94
2022-12-06T18:18:59.233Z,2.88
2022-12-06T18:21:39.763Z,2.89
2022-12-06T18:24:21.488Z,2.92
2022-12-06T18:26:45.980Z,2.95
2022-12-06T18:29:20.520Z,3.06
2022-12-06T18:31:51.495Z,2.97
2022-12-06T18:34:23.436Z,3.07
2022-12-06T18:36:56.807Z,2.99
2022-12-06T18:39:29.248Z,3.04
2022-12-06T18:42:02.056Z,3.04
2022-12-06T18:44:32.918Z,3.03
2022-12-06T18:47:03.945Z,3.02
2022-12-06T18:49:34.435Z,3.01
2022-12-06T18:52:06.344Z,3.02
2022-12-06T18:54:37.072Z,2.98
2022-12-06T18:57:08.236Z,3.10
2022-12-06T18:59:38.800Z,3.06
2022-12-06T19:02:11.486Z,3.17
2022-12-06T19:04:42.464Z,3.12
2022-12-06T19:07:14.545Z,3.07
2022-12-06T19:09:45.067Z,3.11
2022-12-06T19:12:16.764Z,3.11
2022-12-06T19:14:49.022Z,3.18
2022-12-06T19:17:19.587Z,3.20
2022-12-06T19:19:52.152Z,3.15
2022-12-06T19:22:22.612Z,3.11
2022-12-06T19:24:56.546Z,3.14
2022-12-06T19:27:27.090Z,3.11
2022-12-06T19:29:59.328Z,3.20
2022-12-06T19:32:29.829Z,3.11
2022-12-06T19:35:08.196Z,3.20
2022-12-06T19:37:36.968Z,3.20
2022-12-06T19:40:10.941Z,3.18
2022-12-06T19:42:59.390Z,3.35
2022-12-06T19:45:30.040Z,3.16
2022-12-06T19:48:02.081Z,3.24
2022-12-06T19:50:36.232Z,3.24
2022-12-06T19:53:06.750Z,3.29
2022-12-06T19:55:37.534Z,3.31
2022-12-06T19:58:10.964Z,3.23
2022-12-06T20:00:44.638Z,3.26
2022-12-06T20:03:16.013Z,3.23
2022-12-06T20:05:47.663Z,3.28
2022-12-06T20:08:19.472Z,3.26
2022-12-06T20:10:52.623Z,3.26
2022-12-06T20:13:26.322Z,3.29
2022-12-06T20:16:02.191Z,3.36
2022-12-06T20:18:33.367Z,3.30
2022-12-06T20:21:05.157Z,3.30
2022-12-06T20:23:35.679Z,3.30
2022-12-06T20:26:06.467Z,3.33
2022-12-06T20:28:37.044Z,3.31
2022-12-06T20:31:19.617Z,3.34
2022-12-06T20:33:50.624Z,3.31
2022-12-06T20:36:23.626Z,3.32
2022-12-06T20:38:55.239Z,3.26
2022-12-06T20:41:30.863Z,3.31
2022-12-06T20:44:03.529Z,3.32
2022-12-06T20:46:36.571Z,3.35
2022-12-06T20:49:09.617Z,3.34
2022-12-06T20:51:40.609Z,3.39
2022-12-06T20:54:12.476Z,3.36
2022-12-06T20:56:44.202Z,3.34
2022-12-06T20:59:14.837Z,3.41
2022-12-06T21:01:45.523Z,3.38
2022-12-06T21:04:18.177Z,3.34
2022-12-06T21:06:48.733Z,3.30
2022-12-06T21:09:19.741Z,3.36
2022-12-06T21:11:50.991Z,3.36
2022-12-06T21:14:22.067Z,3.44
2022-12-06T21:16:52.898Z,3.40
2022-12-06T21:19:24.936Z,3.36
2022-12-06T21:21:58.567Z,3.44
2022-12-06T21:24:30.143Z,3.30
2022-12-06T21:27:02.120Z,3.44
2022-12-06T21:29:34.905Z,3.41
2022-12-06T21:32:05.699Z,3.41
2022-12-06T21:34:44.479Z,3.41
2022-12-06T21:37:11.286Z,3.42
2022-12-06T21:39:43.441Z,3.42
2022-12-06T21:42:19.532Z,3.47
2022-12-06T21:44:51.630Z,3.48
2022-12-06T21:47:22.110Z,3.58
2022-12-06T21:49:52.557Z,3.58
2022-12-06T21:52:24.827Z,3.41
2022-12-06T21:54:57.765Z,3.45
2022-12-06T21:57:28.135Z,3.41
2022-12-06T21:59:58.724Z,3.36
2022-12-06T22:02:30.777Z,3.46
2022-12-06T22:05:03.439Z,3.44
2022-12-06T22:07:34.640Z,3.41
2022-12-06T22:10:07.609Z,3.48
2022-12-06T22:12:39.537Z,3.36
2022-12-06T22:15:12.315Z,3.34
2022-12-06T22:17:42.680Z,3.31
2022-12-06T22:20:13.269Z,3.32
2022-12-06T22:22:43.955Z,3.32
2022-12-06T22:25:19.444Z,3.24
2022-12-06T22:27:47.988Z,3.24
2022-12-06T22:30:21.271Z,3.21
2022-12-06T22:32:55.362Z,3.21
2022-12-06T22:35:26.235Z,3.18
2022-12-06T22:37:58.132Z,3.14
2022-12-06T22:40:28.701Z,3.20
2022-12-06T22:42:59.196Z,3.08
2022-12-06T22:45:29.691Z,3.09
2022-12-06T22:48:01.187Z,3.00
2022-12-06T22:50:33.248Z,3.06
2022-12-06T22:53:05.001Z,3.06
2022-12-06T22:55:35.747Z,3.46
2022-12-06T22:58:06.245Z,3.90
2022-12-06T23:00:38.730Z,4.24
2022-12-06T23:03:09.227Z,4.14
2022-12-06T23:05:39.917Z,3.95
2022-12-06T23:08:10.432Z,3.61
2022-12-06T23:10:41.869Z,3.26
2022-12-06T23:13:12.439Z,3.17
2022-12-06T23:15:43.013Z,3.10
2022-12-06T23:18:16.199Z,3.01
2022-12-06T23:20:47.056Z,2.93
2022-12-06T23:23:17.545Z,2.78
2022-12-06T23:25:48.183Z,2.75
2022-12-06T23:28:20.215Z,2.66
2022-12-06T23:30:52.296Z,2.68
2022-12-06T23:33:23.094Z,2.68
2022-12-06T23:35:57.356Z,2.62
2022-12-06T23:38:27.816Z,2.68
2022-12-06T23:41:07.143Z,2.66
2022-12-06T23:43:39.412Z,2.64
2022-12-06T23:46:13.384Z,2.60
2022-12-06T23:48:46.288Z,2.58
2022-12-06T23:51:20.214Z,2.52
2022-12-06T23:53:59.678Z,2.46
2022-12-06T23:56:33.252Z,2.50
2022-12-06T23:59:06.910Z,2.46
